Time;durP1;ratioP1;P1;durP2;ratioP2;P2;SDS_P1;SDS_P2;PMS_P1;PMS_P2;Temp;Humidity;BMP_temperature;BMP_pressure;BME280_temperature;BME280_humidity;BME280_pressure;Samples;Min_cycle;Max_cycle;Signal;HPM_P1;HPM_P2
2023/04/12 00:02:10;;;;;;;19.45;4.47;;;;;;;6.86;100.00;100424.19;5072388;28;20090;-74
2023/04/12 00:04:35;;;;;;;19.30;4.20;;;;;;;6.80;100.00;100398.72;5072378;28;20032;-74
2023/04/12 00:07:01;;;;;;;20.00;4.60;;;;;;;6.79;100.00;100383.84;5071409;28;20035;-72
2023/04/12 00:09:31;;;;;;;19.15;4.10;;;;;;;6.79;100.00;100386.47;5072380;28;20035;-73
2023/04/12 00:11:58;;;;;;;17.27;3.80;;;;;;;6.75;100.00;100368.88;5072355;28;20460;-73
2023/04/12 00:14:26;;;;;;;18.60;3.83;;;;;;;6.74;100.00;100372.38;5071286;28;20115;-73
2023/04/12 00:16:51;;;;;;;16.63;3.88;;;;;;;6.71;100.00;100367.94;5068361;28;20356;-73
2023/04/12 00:19:17;;;;;;;17.00;3.80;;;;;;;6.67;100.00;100371.44;5072226;28;20032;-73
2023/04/12 00:21:43;;;;;;;18.42;3.80;;;;;;;6.67;100.00;100370.53;5072387;28;20031;-73
2023/04/12 00:24:09;;;;;;;19.52;4.05;;;;;;;6.67;100.00;100358.28;5072161;28;20052;-73
2023/04/12 00:26:34;;;;;;;16.48;4.10;;;;;;;6.67;100.00;100350.41;5072126;28;20058;-73
2023/04/12 00:29:00;;;;;;;14.77;3.72;;;;;;;6.62;100.00;100337.19;5072161;28;20064;-73
2023/04/12 00:31:25;;;;;;;17.70;3.97;;;;;;;6.61;100.00;100326.69;5072263;28;20111;-73
2023/04/12 00:33:50;;;;;;;17.13;4.03;;;;;;;6.61;100.00;100326.69;5072477;28;20035;-73
2023/04/12 00:36:16;;;;;;;19.27;4.30;;;;;;;6.61;100.00;100322.31;5072279;28;20037;-73
2023/04/12 00:38:42;;;;;;;18.40;4.63;;;;;;;6.60;100.00;100317.06;5074075;28;20033;-74
2023/04/12 00:41:07;;;;;;;18.63;4.15;;;;;;;6.58;100.00;100303.91;5075816;28;20029;-73
2023/04/12 00:43:33;;;;;;;18.27;4.22;;;;;;;6.55;100.00;100296.00;5075879;28;20136;-74
2023/04/12 00:45:59;;;;;;;17.45;4.20;;;;;;;6.54;100.00;100291.59;5075712;28;20029;-73
2023/04/12 00:48:26;;;;;;;17.55;4.20;;;;;;;6.57;100.00;100296.88;5075936;28;20052;-74
2023/04/12 00:50:54;;;;;;;19.40;4.30;;;;;;;6.55;100.00;100290.75;5071855;28;20120;-74
2023/04/12 00:53:21;;;;;;;18.73;4.28;;;;;;;6.53;100.00;100289.81;5075526;28;20146;-74
2023/04/12 00:55:48;;;;;;;18.85;4.30;;;;;;;6.54;100.00;100273.22;5075773;28;20399;-74
2023/04/12 00:58:15;;;;;;;18.13;4.25;;;;;;;6.53;100.00;100258.31;5075785;28;20066;-75
2023/04/12 01:00:40;;;;;;;18.10;4.10;;;;;;;6.52;100.00;100246.03;5075499;28;20111;-75
2023/04/12 01:03:07;;;;;;;19.42;4.43;;;;;;;6.51;100.00;100249.53;5075385;28;20020;-74
2023/04/12 01:05:42;;;;;;;17.67;4.20;;;;;;;6.51;100.00;100243.38;5075605;28;20060;-75
2023/04/12 01:08:22;;;;;;;19.10;4.50;;;;;;;6.49;100.00;100235.50;5075428;28;20028;-75
2023/04/12 01:11:00;;;;;;;18.58;4.30;;;;;;;6.45;100.00;100224.09;5075318;28;20028;-75
2023/04/12 01:14:03;;;;;;;19.83;4.30;;;;;;;6.47;100.00;100218.84;5071695;28;20476;-74
2023/04/12 01:16:35;;;;;;;18.42;4.22;;;;;;;6.42;100.00;100202.16;5069839;28;20060;-75
2023/04/12 01:19:08;;;;;;;19.50;4.05;;;;;;;6.43;100.00;100198.69;5075108;28;20395;-75
2023/04/12 01:22:14;;;;;;;18.20;4.07;;;;;;;6.39;100.00;100191.63;5075076;28;20055;-75
2023/04/12 01:24:46;;;;;;;19.13;4.40;;;;;;;6.39;100.00;100174.16;5069249;28;20033;-74
2023/04/12 01:27:28;;;;;;;17.50;5.10;;;;;;;6.40;100.00;100168.00;5075074;28;20025;-74
2023/04/12 01:29:56;;;;;;;18.63;4.80;;;;;;;6.39;100.00;100165.38;5071250;28;20028;-72
2023/04/12 01:32:22;;;;;;;18.95;4.93;;;;;;;6.38;100.00;100154.00;5071137;28;20033;-73
2023/04/12 01:34:49;;;;;;;21.60;5.10;;;;;;;6.38;100.00;100148.75;5074743;28;20429;-73
2023/04/12 01:37:18;;;;;;;19.77;4.60;;;;;;;6.38;100.00;100150.50;5074936;28;20467;-74
2023/04/12 01:39:44;;;;;;;19.17;4.68;;;;;;;6.37;100.00;100130.34;5075019;28;20024;-73
2023/04/12 01:42:09;;;;;;;19.75;4.65;;;;;;;6.37;100.00;100132.97;5074552;28;20044;-72
2023/04/12 01:44:35;;;;;;;18.23;4.30;;;;;;;6.36;100.00;100123.34;5074759;28;20414;-73
2023/04/12 01:47:01;;;;;;;20.45;4.80;;;;;;;6.36;100.00;100120.72;5075011;28;20533;-73
2023/04/12 01:49:35;;;;;;;19.42;4.50;;;;;;;6.33;100.00;100116.31;5073589;28;20473;-73
2023/04/12 01:52:15;;;;;;;19.05;4.55;;;;;;;6.35;100.00;100118.94;5071627;28;20033;-73
2023/04/12 01:54:43;;;;;;;18.98;4.30;;;;;;;6.33;100.00;100118.06;5074439;28;20036;-72
2023/04/12 01:57:09;;;;;;;18.33;4.32;;;;;;;6.35;100.00;100108.44;5074774;28;20025;-73
2023/04/12 01:59:40;;;;;;;18.73;4.40;;;;;;;6.33;100.00;100091.81;5074651;28;20382;-72
2023/04/12 02:02:07;;;;;;;18.98;4.40;;;;;;;6.30;100.00;100082.16;5074279;28;20028;-73
2023/04/12 02:04:36;;;;;;;16.63;4.20;;;;;;;6.30;100.00;100066.41;5074546;28;20051;-72
2023/04/12 02:07:02;;;;;;;19.08;4.25;;;;;;;6.30;100.00;100071.66;5074538;28;20033;-72
2023/04/12 02:09:28;;;;;;;17.92;4.60;;;;;;;6.30;100.00;100065.53;5074253;28;20025;-72
2023/04/12 02:11:53;;;;;;;16.13;3.92;;;;;;;6.31;100.00;100056.81;5074248;28;20459;-73
2023/04/12 02:14:19;;;;;;;17.98;4.22;;;;;;;6.29;100.00;100043.63;5074494;28;20032;-72
2023/04/12 02:16:45;;;;;;;16.95;4.07;;;;;;;6.28;100.00;100023.53;5073968;28;20020;-72
2023/04/12 02:19:11;;;;;;;19.58;4.40;;;;;;;6.31;100.00;100038.44;5074096;28;20074;-72
2023/04/12 02:21:44;;;;;;;16.67;4.05;;;;;;;6.28;100.00;100032.25;5074196;28;20059;-73
2023/04/12 02:24:10;;;;;;;19.60;4.20;;;;;;;6.28;100.00;100015.66;5074230;28;20075;-72
2023/04/12 02:26:37;;;;;;;16.17;4.25;;;;;;;6.27;100.00;100009.50;5073821;28;20025;-73
2023/04/12 02:29:03;;;;;;;17.52;4.25;;;;;;;6.27;100.00;100008.63;5074028;28;20024;-73
2023/04/12 02:31:31;;;;;;;16.08;4.07;;;;;;;6.27;100.00;100006.00;5073780;28;20032;-73
2023/04/12 02:33:57;;;;;;;16.80;3.92;;;;;;;6.26;100.00;99996.34;5073947;28;20450;-73
2023/04/12 02:36:22;;;;;;;16.60;4.10;;;;;;;6.27;100.00;99993.75;5069931;28;20064;-74
2023/04/12 02:38:49;;;;;;;18.80;4.40;;;;;;;6.27;100.00;99977.13;5073609;28;20379;-74
2023/04/12 02:41:18;;;;;;;19.38;4.03;;;;;;;6.25;100.00;99964.00;5073521;28;20486;-73
2023/04/12 02:43:44;;;;;;;17.00;3.83;;;;;;;6.26;100.00;99968.38;5073577;28;20128;-74
2023/04/12 02:46:12;;;;;;;15.98;3.85;;;;;;;6.23;100.00;99965.75;5072253;28;20158;-74
2023/04/12 02:48:38;;;;;;;17.30;4.00;;;;;;;6.24;100.00;99951.72;5073484;28;20131;-73
2023/04/12 02:51:03;;;;;;;16.17;4.05;;;;;;;6.23;100.00;99955.25;5073612;28;20515;-73
2023/04/12 02:53:29;;;;;;;17.48;4.00;;;;;;;6.24;100.00;99935.97;5073319;28;20356;-73
2023/04/12 02:55:56;;;;;;;15.52;3.70;;;;;;;6.22;100.00;99921.97;5073271;28;20112;-73
2023/04/12 02:58:23;;;;;;;16.05;3.80;;;;;;;6.23;100.00;99910.63;5073473;28;20052;-73
2023/04/12 03:00:48;;;;;;;13.50;3.50;;;;;;;6.24;100.00;99914.97;5073028;28;20032;-73
2023/04/12 03:03:16;;;;;;;14.50;3.70;;;;;;;6.23;100.00;99901.84;5073057;28;20484;-73
2023/04/12 03:05:46;;;;;;;14.32;3.80;;;;;;;6.23;100.00;99910.63;5073298;28;20031;-74
2023/04/12 03:08:11;;;;;;;17.65;3.80;;;;;;;6.22;100.00;99900.97;5073079;28;20077;-73
2023/04/12 03:10:37;;;;;;;17.35;3.88;;;;;;;6.23;100.00;99888.72;5073033;28;20032;-74
2023/04/12 03:13:03;;;;;;;16.70;3.92;;;;;;;6.22;100.00;99879.13;5072026;28;20036;-73
2023/04/12 03:15:29;;;;;;;14.85;3.80;;;;;;;6.21;100.00;99885.22;5073152;28;20033;-73
2023/04/12 03:17:54;;;;;;;13.90;3.80;;;;;;;6.22;100.00;99876.50;5073024;28;20051;-73
2023/04/12 03:20:23;;;;;;;17.63;3.85;;;;;;;6.23;100.00;99870.34;5073149;28;20102;-73
2023/04/12 03:22:49;;;;;;;15.55;3.70;;;;;;;6.23;100.00;99872.97;5072839;28;20122;-73
2023/04/12 03:25:16;;;;;;;15.65;3.80;;;;;;;6.20;100.00;99868.56;5072888;28;20471;-74
2023/04/12 03:27:42;;;;;;;16.13;3.80;;;;;;;6.22;100.00;99866.88;5073030;28;20115;-73
2023/04/12 03:30:10;;;;;;;15.77;3.90;;;;;;;6.23;100.00;99865.09;5072674;28;20037;-74
2023/04/12 03:32:35;;;;;;;17.80;4.05;;;;;;;6.24;100.00;99867.72;5072700;28;20475;-74
2023/04/12 03:35:02;;;;;;;17.98;3.90;;;;;;;6.23;100.00;99859.84;5072774;28;20043;-75
2023/04/12 03:37:28;;;;;;;16.00;3.80;;;;;;;6.23;100.00;99862.47;5072763;28;20052;-74
2023/04/12 03:39:53;;;;;;;16.88;3.88;;;;;;;6.23;100.00;99846.72;5068648;28;20032;-75
2023/04/12 03:42:19;;;;;;;16.17;3.97;;;;;;;6.22;100.00;99839.75;5072646;28;20502;-75
2023/04/12 03:44:44;;;;;;;16.13;4.00;;;;;;;6.21;100.00;99837.97;5072644;28;20024;-75
2023/04/12 03:47:10;;;;;;;14.52;3.80;;;;;;;6.23;100.00;99831.88;5072696;28;20039;-75
2023/04/12 03:49:37;;;;;;;17.20;3.80;;;;;;;6.23;100.00;99831.88;5072692;28;20104;-75
2023/04/12 03:52:04;;;;;;;15.88;3.70;;;;;;;6.22;100.00;99826.63;5071229;28;20036;-75
2023/04/12 03:54:29;;;;;;;15.38;3.70;;;;;;;6.22;100.00;99819.63;5072578;28;20036;-75
2023/04/12 03:56:55;;;;;;;15.20;3.83;;;;;;;6.23;100.00;99821.38;5072535;28;20036;-75
2023/04/12 03:59:21;;;;;;;14.10;3.83;;;;;;;6.25;100.00;99809.13;5072396;28;20464;-75
2023/04/12 04:01:46;;;;;;;16.45;3.70;;;;;;;6.25;100.00;99819.63;5072568;28;20074;-75
2023/04/12 04:04:12;;;;;;;14.52;3.85;;;;;;;6.25;100.00;99803.88;5072362;28;20021;-75
2023/04/12 04:06:38;;;;;;;14.45;3.70;;;;;;;6.26;100.00;99796.88;5072373;28;20383;-75
2023/04/12 04:09:04;;;;;;;16.63;3.70;;;;;;;6.25;100.00;99795.16;5072590;28;20028;-75
2023/04/12 04:11:30;;;;;;;14.13;3.80;;;;;;;6.22;100.00;99790.75;5072614;28;20139;-75
2023/04/12 04:13:56;;;;;;;17.60;3.90;;;;;;;6.23;100.00;99783.75;5074852;28;20513;-75
2023/04/12 04:16:21;;;;;;;16.35;3.78;;;;;;;6.23;100.00;99782.00;5076469;28;20060;-76
2023/04/12 04:18:47;;;;;;;14.43;3.70;;;;;;;6.20;100.00;99779.34;5076218;28;20059;-75
2023/04/12 04:21:15;;;;;;;15.77;4.20;;;;;;;6.21;100.00;99775.84;5076256;28;20115;-76
2023/04/12 04:23:43;;;;;;;14.55;3.88;;;;;;;6.21;100.00;99767.13;5076444;28;20033;-75
2023/04/12 04:26:09;;;;;;;15.05;3.85;;;;;;;6.21;100.00;99765.38;5076204;28;20442;-75
2023/04/12 04:28:40;;;;;;;15.93;4.15;;;;;;;6.23;100.00;99765.38;5076166;28;20104;-75
2023/04/12 04:31:09;;;;;;;15.60;4.25;;;;;;;6.23;100.00;99770.63;5076168;28;20033;-75
2023/04/12 04:33:34;;;;;;;18.50;4.50;;;;;;;6.24;100.00;99762.75;5076028;28;20028;-76
2023/04/12 04:36:01;;;;;;;15.75;4.30;;;;;;;6.25;100.00;99754.03;5075872;28;20028;-76
2023/04/12 04:38:27;;;;;;;16.85;4.40;;;;;;;6.25;100.00;99751.41;5075047;28;20036;-76
2023/04/12 04:40:52;;;;;;;16.20;4.25;;;;;;;6.25;100.00;99748.78;5075803;28;20106;-76
2023/04/12 04:43:19;;;;;;;16.70;4.40;;;;;;;6.28;100.00;99748.78;5075715;28;20099;-76
2023/04/12 04:45:48;;;;;;;14.15;4.30;;;;;;;6.26;100.00;99745.28;5075963;28;20479;-76
2023/04/12 04:48:13;;;;;;;17.17;4.38;;;;;;;6.26;100.00;99740.03;5075779;28;20033;-75
2023/04/12 04:50:39;;;;;;;17.50;4.30;;;;;;;6.27;100.00;99747.00;5075738;28;20047;-75
2023/04/12 04:53:05;;;;;;;15.05;4.38;;;;;;;6.30;100.00;99745.28;5075866;28;20033;-75
2023/04/12 04:55:30;;;;;;;18.65;4.90;;;;;;;6.32;100.00;99740.91;5075464;28;20036;-75
2023/04/12 04:57:56;;;;;;;17.15;4.57;;;;;;;6.33;100.00;99734.81;5075626;28;20543;-75
2023/04/12 05:00:24;;;;;;;17.17;4.68;;;;;;;6.34;100.00;99740.06;5075540;28;20524;-75
2023/04/12 05:02:50;;;;;;;14.90;4.40;;;;;;;6.35;100.00;99735.66;5075551;28;20028;-75
2023/04/12 05:05:16;;;;;;;16.35;4.80;;;;;;;6.36;100.00;99740.06;5075302;28;20433;-75
2023/04/12 05:07:42;;;;;;;17.83;4.90;;;;;;;6.36;100.00;99729.56;5075648;28;20537;-75
2023/04/12 05:10:09;;;;;;;17.92;5.07;;;;;;;6.38;100.00;99733.09;5075330;28;20055;-76
2023/04/12 05:12:35;;;;;;;18.48;5.20;;;;;;;6.40;100.00;99736.59;5075169;28;20035;-75
2023/04/12 05:15:00;;;;;;;16.90;5.22;;;;;;;6.40;100.00;99720.81;5075443;28;20037;-76
2023/04/12 05:17:26;;;;;;;17.42;4.82;;;;;;;6.40;100.00;99732.19;5075210;28;20056;-76
2023/04/12 05:19:52;;;;;;;17.40;5.18;;;;;;;6.45;100.00;99719.97;5075145;28;20055;-76
2023/04/12 05:22:20;;;;;;;17.67;5.25;;;;;;;6.45;100.00;99721.69;5075625;28;20064;-76
2023/04/12 05:24:45;;;;;;;19.90;5.32;;;;;;;6.46;100.00;99728.72;5074906;28;20029;-76
2023/04/12 05:27:12;;;;;;;18.70;5.60;;;;;;;6.48;100.00;99721.75;5075089;28;20135;-76
2023/04/12 05:29:38;;;;;;;18.35;5.43;;;;;;;6.49;100.00;99720.84;5075276;28;20111;-76
2023/04/12 05:32:03;;;;;;;18.63;5.35;;;;;;;6.51;100.00;99720.84;5073635;28;20456;-76
2023/04/12 05:34:29;;;;;;;20.23;5.78;;;;;;;6.52;100.00;99720.84;5074945;28;20028;-76
2023/04/12 05:36:55;;;;;;;18.80;5.43;;;;;;;6.52;100.00;99714.72;5070958;28;20067;-76
2023/04/12 05:39:25;;;;;;;20.98;6.00;;;;;;;6.53;100.00;99709.47;5075029;28;20064;-73
2023/04/12 05:41:50;;;;;;;17.65;5.32;;;;;;;6.55;100.00;99713.00;5066098;28;20048;-75
2023/04/12 05:44:15;;;;;;;19.77;5.32;;;;;;;6.58;100.00;99707.75;5068234;28;20475;-74
2023/04/12 05:46:41;;;;;;;18.60;5.40;;;;;;;6.57;100.00;99702.50;5067476;28;20058;-76
2023/04/12 05:49:07;;;;;;;18.98;5.05;;;;;;;6.58;100.00;99704.25;5068086;28;20033;-74
2023/04/12 05:51:32;;;;;;;19.23;5.57;;;;;;;6.61;100.00;99712.13;5076076;28;20037;-76
2023/04/12 05:53:57;;;;;;;20.00;5.53;;;;;;;6.62;100.00;99709.50;5070795;28;20055;-74
2023/04/12 05:56:23;;;;;;;19.08;5.57;;;;;;;6.61;100.00;99710.41;5064529;28;20033;-76
2023/04/12 05:58:48;;;;;;;19.38;5.70;;;;;;;6.63;100.00;99705.16;5073135;28;20031;-75
2023/04/12 06:01:15;;;;;;;19.70;6.25;;;;;;;6.64;100.00;99696.41;5075868;28;20025;-73
2023/04/12 06:03:42;;;;;;;19.23;6.00;;;;;;;6.69;100.00;99702.53;5070319;28;20544;-75
2023/04/12 06:06:08;;;;;;;19.60;6.00;;;;;;;6.70;100.00;99700.75;5070992;28;20170;-74
2023/04/12 06:08:35;;;;;;;18.17;5.85;;;;;;;6.73;100.00;99693.78;5075150;28;20466;-74
2023/04/12 06:11:00;;;;;;;21.45;6.57;;;;;;;6.72;100.00;99688.53;5075894;28;20429;-75
2023/04/12 06:13:26;;;;;;;18.17;6.28;;;;;;;6.78;100.00;99696.41;5068742;28;20056;-77
2023/04/12 06:15:51;;;;;;;18.65;6.40;;;;;;;6.78;100.00;99696.41;5075308;28;20033;-76
2023/04/12 06:18:17;;;;;;;20.33;6.43;;;;;;;6.76;100.00;99690.28;5074600;28;20073;-78
2023/04/12 06:20:42;;;;;;;19.13;6.20;;;;;;;6.77;100.00;99708.69;5073274;28;20028;-76
2023/04/12 06:23:08;;;;;;;20.45;6.07;;;;;;;6.79;100.00;99708.69;5068262;28;20020;-75
2023/04/12 06:25:33;;;;;;;18.83;6.00;;;;;;;6.80;100.00;99694.66;5063441;28;20107;-74
2023/04/12 06:27:58;;;;;;;18.95;6.15;;;;;;;6.80;100.00;99692.03;5068993;28;20057;-72
2023/04/12 06:30:24;;;;;;;19.63;6.28;;;;;;;6.82;100.00;99690.28;5075169;28;20036;-73
2023/04/12 06:32:49;;;;;;;19.25;6.47;;;;;;;6.83;100.00;99680.66;5072766;28;20056;-78
2023/04/12 06:35:15;;;;;;;19.83;6.47;;;;;;;6.86;100.00;99692.06;5064061;28;20032;-75
2023/04/12 06:37:41;;;;;;;19.02;6.40;;;;;;;6.87;100.00;99685.91;5065530;28;20028;-78
2023/04/12 06:40:07;;;;;;;20.67;6.90;;;;;;;6.91;100.00;99692.91;5075294;28;20028;-75
2023/04/12 06:42:32;;;;;;;20.42;7.10;;;;;;;6.93;100.00;99691.19;5065039;28;20060;-73
2023/04/12 06:44:58;;;;;;;20.83;7.88;;;;;;;6.91;100.00;99682.41;5076445;28;20520;-72
2023/04/12 06:47:24;;;;;;;21.05;9.52;;;;;;;6.92;100.00;99689.44;5068228;28;20028;-74
2023/04/12 06:49:51;;;;;;;22.50;10.73;;;;;;;6.91;100.00;99684.16;5070478;28;20017;-73
2023/04/12 06:52:17;;;;;;;22.60;10.52;;;;;;;6.92;100.00;99705.19;5074135;28;20035;-72
2023/04/12 06:54:42;;;;;;;22.67;10.75;;;;;;;6.93;100.00;99693.81;5071666;28;20032;-79
2023/04/12 06:57:11;;;;;;;22.35;10.60;;;;;;;6.98;100.00;99694.69;5075028;28;20112;-75
2023/04/12 06:59:36;;;;;;;22.13;10.15;;;;;;;6.99;100.00;99692.94;5071476;28;20025;-77
2023/04/12 07:02:01;;;;;;;21.00;10.02;;;;;;;7.06;100.00;99701.69;5069707;28;20056;-76
2023/04/12 07:04:27;;;;;;;21.90;9.95;;;;;;;7.05;100.00;99694.66;5068379;28;20061;-74
2023/04/12 07:06:52;;;;;;;22.38;10.07;;;;;;;7.05;100.00;99697.28;5071225;28;20024;-73
2023/04/12 07:09:18;;;;;;;22.15;9.82;;;;;;;7.02;100.00;99692.94;5068089;28;20399;-75
2023/04/12 07:11:43;;;;;;;22.42;10.27;;;;;;;7.05;100.00;99692.94;5069318;28;20089;-74
2023/04/12 07:14:09;;;;;;;22.50;10.32;;;;;;;7.12;100.00;99696.44;5072756;28;20039;-75
2023/04/12 07:16:34;;;;;;;24.00;10.93;;;;;;;7.16;100.00;99698.19;5065927;28;20031;-74
2023/04/12 07:19:00;;;;;;;24.35;10.38;;;;;;;7.16;100.00;99698.19;5074560;28;20112;-77
2023/04/12 07:21:26;;;;;;;22.88;10.30;;;;;;;7.24;100.00;99695.56;5076204;28;20104;-75
2023/04/12 07:23:51;;;;;;;23.15;10.27;;;;;;;7.30;100.00;99696.44;5069408;28;20036;-73
2023/04/12 07:26:20;;;;;;;23.65;10.88;;;;;;;7.27;100.00;99698.19;5066210;28;20497;-75
2023/04/12 07:28:46;;;;;;;23.08;9.75;;;;;;;7.28;100.00;99703.47;5068105;28;20475;-72
2023/04/12 07:31:11;;;;;;;23.00;9.68;;;;;;;7.31;100.00;99698.19;5078877;28;20043;-74
2023/04/12 07:33:37;;;;;;;24.17;9.48;;;;;;;7.30;100.00;99704.31;5065388;28;20103;-72
2023/04/12 07:36:03;;;;;;;25.05;9.85;;;;;;;7.36;100.00;99705.22;5068889;28;20039;-75
2023/04/12 07:38:28;;;;;;;24.75;9.80;;;;;;;7.37;100.00;99694.69;5065718;28;20367;-76
2023/04/12 07:40:55;;;;;;;26.00;9.88;;;;;;;7.39;100.00;99692.91;5075067;28;20111;-78
2023/04/12 07:43:21;;;;;;;23.67;10.15;;;;;;;7.56;100.00;99686.75;5071269;28;20411;-77
2023/04/12 07:45:46;;;;;;;24.08;9.57;;;;;;;7.51;100.00;99692.03;5070367;28;20043;-78
2023/04/12 07:48:13;;;;;;;25.17;9.30;;;;;;;7.48;100.00;99681.50;5068810;28;20072;-77
2023/04/12 07:50:39;;;;;;;25.40;10.07;;;;;;;7.57;100.00;99684.16;5072434;28;20393;-77
2023/04/12 07:53:31;;;;;;;22.75;9.00;;;;;;;7.54;100.00;99684.13;5062954;28;20033;-77
2023/04/12 07:55:56;;;;;;;24.45;9.10;;;;;;;7.44;100.00;99682.38;5065296;28;20440;-76
2023/04/12 07:58:23;;;;;;;23.05;9.00;;;;;;;7.44;100.00;99690.28;5067506;28;20032;-76
2023/04/12 08:00:49;;;;;;;24.77;9.20;;;;;;;7.51;100.00;99686.75;5066988;28;21744;-74
2023/04/12 08:03:16;;;;;;;26.25;9.57;;;;;;;7.39;100.00;99687.66;5068888;28;20035;-74
2023/04/12 08:05:42;;;;;;;23.42;8.95;;;;;;;7.30;100.00;99685.06;5070265;28;20047;-78
2023/04/12 08:08:11;;;;;;;24.70;9.60;;;;;;;7.41;100.00;99685.03;5070120;28;20029;-75
2023/04/12 08:10:38;;;;;;;20.63;6.82;;;;;;;7.29;100.00;99691.19;5068397;28;20032;-74
2023/04/12 08:13:05;;;;;;;20.90;7.25;;;;;;;7.19;100.00;99700.81;5072312;28;20082;-76
2023/04/12 08:15:30;;;;;;;19.70;6.70;;;;;;;7.12;100.00;99699.06;5072306;28;20458;-75
2023/04/12 08:17:56;;;;;;;22.00;6.82;;;;;;;7.13;100.00;99698.19;5072240;28;20109;-77
2023/04/12 08:20:21;;;;;;;23.02;7.82;;;;;;;7.26;100.00;99699.94;5072283;28;20053;-77
2023/04/12 08:22:47;;;;;;;22.48;7.97;;;;;;;7.17;100.00;99702.56;5072438;28;20166;-77
2023/04/12 08:25:13;;;;;;;24.35;8.48;;;;;;;7.22;100.00;99692.91;5072160;28;20052;-77
2023/04/12 08:27:41;;;;;;;23.95;7.70;;;;;;;7.26;100.00;99694.69;5072419;28;20439;-77
2023/04/12 08:30:07;;;;;;;25.75;7.28;;;;;;;7.32;100.00;99696.44;5068165;28;20039;-77
2023/04/12 08:32:33;;;;;;;25.48;7.85;;;;;;;7.43;100.00;99702.56;5072091;28;20033;-77
2023/04/12 08:34:59;;;;;;;24.35;7.13;;;;;;;7.51;100.00;99705.16;5072193;28;20036;-77
2023/04/12 08:37:24;;;;;;;24.50;8.27;;;;;;;7.66;100.00;99699.91;5072162;28;20025;-78
2023/04/12 08:39:50;;;;;;;23.55;8.20;;;;;;;7.92;100.00;99698.97;5072091;28;20103;-77
2023/04/12 08:42:16;;;;;;;24.13;8.90;;;;;;;8.06;100.00;99687.50;5072036;28;20033;-77
2023/04/12 08:44:41;;;;;;;25.88;9.75;;;;;;;8.24;100.00;99676.88;5072097;28;20437;-77
2023/04/12 08:47:08;;;;;;;25.10;10.23;;;;;;;8.38;100.00;99675.06;5072089;28;20028;-77
2023/04/12 08:49:35;;;;;;;25.38;10.48;;;;;;;8.77;100.00;99679.28;5072181;28;20490;-78
2023/04/12 08:52:07;;;;;;;29.55;11.77;;;;;;;9.06;100.00;99685.19;5067013;28;20032;-76
2023/04/12 08:54:34;;;;;;;26.73;11.88;;;;;;;9.19;100.00;99685.97;5066682;28;20475;-79
2023/04/12 08:57:05;;;;;;;27.73;10.52;;;;;;;9.32;100.00;99688.50;5066596;28;20029;-76
2023/04/12 08:59:32;;;;;;;24.88;10.10;;;;;;;9.37;100.00;99689.34;5063465;28;20449;-75
2023/04/12 09:01:58;;;;;;;25.70;9.25;;;;;;;9.13;100.00;99686.03;5070543;28;20035;-74
2023/04/12 09:04:25;;;;;;;23.17;9.80;;;;;;;9.29;100.00;99680.63;5068529;28;20394;-73
2023/04/12 09:06:51;;;;;;;24.00;9.70;;;;;;;9.10;100.00;99669.34;5074857;28;20029;-75
2023/04/12 09:09:17;;;;;;;23.55;9.35;;;;;;;8.85;100.00;99665.16;5075464;28;20029;-74
2023/04/12 09:11:42;;;;;;;26.58;10.48;;;;;;;8.99;100.00;99657.13;5073995;28;20102;-71
2023/04/12 09:14:24;;;;;;;27.90;10.48;;;;;;;9.00;100.00;99647.47;5072435;28;20447;-71
2023/04/12 09:16:50;;;;;;;26.48;10.82;;;;;;;8.92;100.00;99644.88;5073830;28;20119;-80
2023/04/12 09:19:29;;;;;;;27.20;11.40;;;;;;;9.46;100.00;99638.25;5073810;28;20028;-79
2023/04/12 09:21:55;;;;;;;24.17;9.77;;;;;;;9.48;100.00;99639.09;5070470;28;20040;-77
2023/04/12 09:24:23;;;;;;;26.98;10.40;;;;;;;9.98;100.00;99637.66;5064049;28;20033;-77
2023/04/12 09:27:09;;;;;;;26.08;9.85;;;;;;;9.66;100.00;99632.78;5069053;28;20431;-76
2023/04/12 09:29:35;;;;;;;27.45;9.88;;;;;;;9.86;100.00;99628.13;5071010;28;20056;-78
2023/04/12 09:32:08;;;;;;;24.90;9.40;;;;;;;10.11;100.00;99635.75;5071532;28;20057;-75
2023/04/12 09:34:35;;;;;;;26.98;9.65;;;;;;;9.95;100.00;99619.22;5075834;28;20024;-75
2023/04/12 09:37:14;;;;;;;25.98;8.48;;;;;;;9.43;100.00;99624.19;5074474;28;20016;-71
2023/04/12 09:39:40;;;;;;;25.95;8.90;;;;;;;9.48;100.00;99625.91;5070665;28;20025;-75
2023/04/12 09:42:07;;;;;;;29.23;10.23;;;;;;;9.44;100.00;99627.72;5070557;28;20028;-76
2023/04/12 09:44:33;;;;;;;25.42;9.70;;;;;;;9.54;100.00;99631.16;5072588;28;20503;-74
2023/04/12 09:47:03;;;;;;;25.52;8.05;;;;;;;9.64;100.00;99624.00;5072058;28;20020;-77
2023/04/12 09:49:40;;;;;;;25.55;7.03;;;;;;;9.76;100.00;99618.59;5070238;28;20025;-77
2023/04/12 09:52:07;;;;;;;24.52;7.53;;;;;;;9.84;100.00;99607.94;5075238;28;20089;-77
2023/04/12 09:54:38;;;;;;;24.00;7.22;;;;;;;9.66;100.00;99609.91;5067973;28;20115;-76
2023/04/12 09:57:07;;;;;;;23.65;7.28;;;;;;;9.52;100.00;99617.09;5076091;28;20123;-77
2023/04/12 09:59:36;;;;;;;26.10;7.97;;;;;;;9.36;100.00;99604.09;5071047;28;20040;-77
2023/04/12 10:02:07;;;;;;;27.83;7.90;;;;;;;9.19;100.00;99606.00;5064210;28;20066;-76
2023/04/12 10:04:34;;;;;;;24.25;7.10;;;;;;;9.21;100.00;99609.50;5071182;28;20055;-77
2023/04/12 10:07:00;;;;;;;25.40;7.82;;;;;;;9.23;100.00;99594.50;5069323;28;20141;-77
2023/04/12 10:09:27;;;;;;;27.42;8.20;;;;;;;9.19;100.00;99595.47;5074189;28;20071;-77
2023/04/12 10:11:52;;;;;;;25.25;8.48;;;;;;;9.05;100.00;99609.63;5068230;28;20470;-77
2023/04/12 10:14:20;;;;;;;25.13;7.43;;;;;;;9.00;100.00;99621.09;5073991;28;20036;-77
2023/04/12 10:16:47;;;;;;;24.90;6.57;;;;;;;8.83;100.00;99626.53;5068357;28;20024;-77
2023/04/12 10:19:13;;;;;;;26.48;7.25;;;;;;;8.79;100.00;99620.38;5076712;28;20119;-77
2023/04/12 10:21:39;;;;;;;24.38;7.15;;;;;;;8.87;100.00;99617.72;5072873;28;20503;-77
2023/04/12 10:24:06;;;;;;;23.08;6.20;;;;;;;8.89;100.00;99616.78;5070814;28;20036;-78
2023/04/12 10:26:31;;;;;;;25.25;6.43;;;;;;;8.88;100.00;99616.81;5068467;28;20034;-78
2023/04/12 10:29:39;;;;;;;25.23;6.15;;;;;;;8.86;100.00;99614.19;5069792;28;20067;-78
2023/04/12 10:32:22;;;;;;;25.85;6.70;;;;;;;8.84;100.00;99613.34;5002097;28;20076;-78
2023/04/12 10:34:55;;;;;;;25.27;6.15;;;;;;;8.68;100.00;99623.13;5008407;28;20041;-78
2023/04/12 10:37:21;;;;;;;25.33;5.90;;;;;;;8.60;100.00;99619.66;5045535;28;20032;-78
2023/04/12 10:39:53;;;;;;;23.65;5.30;;;;;;;8.49;100.00;99621.47;5072443;28;20059;-78
2023/04/12 10:42:22;;;;;;;23.58;4.75;;;;;;;8.43;100.00;99625.03;5070065;28;20063;-77
2023/04/12 10:44:53;;;;;;;23.92;5.15;;;;;;;8.40;100.00;99613.63;5068765;28;20048;-78
2023/04/12 10:47:47;;;;;;;22.85;4.38;;;;;;;8.21;100.00;99624.25;5065935;28;20036;-71
2023/04/12 10:50:30;;;;;;;22.88;4.93;;;;;;;7.98;100.00;99627.88;5073062;28;20033;-71
2023/04/12 10:53:07;;;;;;;;;;;;;;;7.51;100.00;99636.78;5071048;28;20112;-73
2023/04/12 10:55:33;;;;;;;24.23;5.25;;;;;;;7.46;100.00;99628.06;5073218;28;20363;-73
2023/04/12 10:57:58;;;;;;;23.48;5.65;;;;;;;7.40;100.00;99622.81;5073528;28;20055;-72
2023/04/12 11:00:58;;;;;;;26.15;6.15;;;;;;;7.49;100.00;99634.16;5073253;28;20116;-73
2023/04/12 11:03:25;;;;;;;26.77;6.93;;;;;;;7.63;100.00;99639.41;5070531;28;20112;-73
2023/04/12 11:06:02;;;;;;;26.60;7.18;;;;;;;7.64;100.00;99645.53;5073178;28;20466;-72
2023/04/12 11:08:28;;;;;;;26.83;8.00;;;;;;;7.58;100.00;99643.78;5073119;28;20020;-71
2023/04/12 11:11:16;;;;;;;26.83;7.95;;;;;;;7.62;100.00;99647.31;5073240;28;20024;-71
2023/04/12 11:13:42;;;;;;;27.80;9.10;;;;;;;7.73;100.00;99647.25;5072994;28;20025;-71
2023/04/12 11:16:11;;;;;;;28.40;9.88;;;;;;;7.92;100.00;99653.34;5073068;28;20024;-73
2023/04/12 11:18:37;;;;;;;28.80;10.35;;;;;;;8.14;100.00;99659.38;5072856;28;20024;-72
2023/04/12 11:21:03;;;;;;;27.58;10.23;;;;;;;8.17;100.00;99662.03;5073252;28;20127;-72
2023/04/12 11:23:30;;;;;;;30.05;9.20;;;;;;;8.10;100.00;99662.94;5072993;28;20024;-71
2023/04/12 11:25:56;;;;;;;27.10;9.70;;;;;;;8.05;100.00;99659.44;5072828;28;20529;-71